Wolke Sonne

Wetter Roßtal

Gehe zu: Ammerndorf

Tageswerte vom Montag, 22.07.2024

Optionen

Tag:
Erweitert:

Alle Werte vom Montag, 22.07.2024

Einen Moment bitte, die Daten werden aufbereitet...

UhrzeitTemperaturLuftfeuchteLuftdruckNiederschlagEvapotranspirationNiederschlag?WindWindböenRegenrateWindrichtungHelligkeitSolarstrahlungUV-IndexSonne?Feinstaub 10µmFeinstaub 2,5µmFeinstaub 1µmLuftqualitätsindexUhrzeit
Diagramm IconDiagramm IconDiagramm IconDiagramm IconDiagramm IconDiagramm IconDiagramm IconDiagramm IconDiagramm IconDiagramm IconDiagramm IconDiagramm IconDiagramm IconDiagramm IconDiagramm IconDiagramm IconDiagramm IconDiagramm Icon
00:0021,6 °C 80 % 1010,5 hPa 0,0 mm 0,0 mm nein 3,2 km/h 6,4 km/h 0,0 mm/h NW 0,000 klux 0,0 W/qm 0,0 nein 12,00 µg/m³ 7,50 µg/m³ 6,00 µg/m³ 41 AQI 00:00
00:0521,6 °C 81 % 1010,5 hPa 0,0 mm 0,0 mm nein 1,6 km/h 3,2 km/h 0,0 mm/h NW 0,000 klux 0,0 W/qm 0,0 nein 11,50 µg/m³ 7,00 µg/m³ 5,50 µg/m³ 38 AQI 00:05
00:1021,6 °C 81 % 1010,6 hPa 0,0 mm 0,0 mm nein 3,2 km/h 6,4 km/h 0,0 mm/h NW 0,000 klux 0,0 W/qm 0,0 nein 11,50 µg/m³ 8,00 µg/m³ 6,00 µg/m³ 44 AQI 00:10
00:1521,6 °C 81 % 1010,6 hPa 0,0 mm 0,0 mm nein 3,2 km/h 6,4 km/h 0,0 mm/h NW 0,000 klux 0,0 W/qm 0,0 nein 12,50 µg/m³ 7,00 µg/m³ 5,50 µg/m³ 38 AQI 00:15
00:2021,6 °C 81 % 1010,6 hPa 0,0 mm 0,0 mm nein 1,6 km/h 8,0 km/h 0,0 mm/h W 0,000 klux 0,0 W/qm 0,0 nein 14,00 µg/m³ 8,50 µg/m³ 5,50 µg/m³ 47 AQI 00:20
00:2521,6 °C 81 % 1010,5 hPa 0,0 mm 0,0 mm nein 3,2 km/h 12,9 km/h 0,0 mm/h W 0,000 klux 0,0 W/qm 0,0 nein 12,00 µg/m³ 7,00 µg/m³ 5,50 µg/m³ 38 AQI 00:25
00:3021,6 °C 81 % 1010,6 hPa 0,0 mm 0,0 mm nein 1,6 km/h 8,0 km/h 0,0 mm/h NW 0,000 klux 0,0 W/qm 0,0 nein 12,00 µg/m³ 7,50 µg/m³ 6,00 µg/m³ 41 AQI 00:30
00:3521,6 °C 81 % 1010,7 hPa 0,0 mm 0,0 mm nein 4,8 km/h 9,7 km/h 0,0 mm/h WNW 0,000 klux 0,0 W/qm 0,0 nein 10,50 µg/m³ 7,00 µg/m³ 5,50 µg/m³ 38 AQI 00:35
00:4021,6 °C 82 % 1010,7 hPa 0,0 mm 0,0 mm nein 4,8 km/h 9,7 km/h 0,0 mm/h NW 0,000 klux 0,0 W/qm 0,0 nein 15,00 µg/m³ 8,00 µg/m³ 5,50 µg/m³ 44 AQI 00:40
00:4521,5 °C 82 % 1010,8 hPa 0,0 mm 0,0 mm nein 3,2 km/h 6,4 km/h 0,0 mm/h NW 0,000 klux 0,0 W/qm 0,0 nein 15,00 µg/m³ 8,50 µg/m³ 5,50 µg/m³ 47 AQI 00:45
00:5021,5 °C 82 % 1010,8 hPa 0,0 mm 0,0 mm nein 6,4 km/h 12,9 km/h 0,0 mm/h NW 0,000 klux 0,0 W/qm 0,0 nein 12,00 µg/m³ 7,00 µg/m³ 5,50 µg/m³ 38 AQI 00:50
00:5521,5 °C 82 % 1010,8 hPa 0,0 mm 0,0 mm nein 6,4 km/h 11,3 km/h 0,0 mm/h WNW 0,000 klux 0,0 W/qm 0,0 nein 11,50 µg/m³ 6,50 µg/m³ 5,50 µg/m³ 36 AQI 00:55
01:0021,5 °C 82 % 1010,9 hPa 0,0 mm 0,0 mm nein 6,4 km/h 11,3 km/h 0,0 mm/h NW 0,000 klux 0,0 W/qm 0,0 nein 10,50 µg/m³ 6,00 µg/m³ 5,00 µg/m³ 33 AQI 01:00
01:0521,4 °C 81 % 1011,0 hPa 0,0 mm 0,0 mm nein 8,0 km/h 12,9 km/h 0,0 mm/h NW 0,000 klux 0,0 W/qm 0,0 nein 10,50 µg/m³ 6,00 µg/m³ 5,00 µg/m³ 33 AQI 01:05
01:1021,4 °C 81 % 1011,0 hPa 0,0 mm 0,0 mm nein 8,0 km/h 12,9 km/h 0,0 mm/h NW 0,000 klux 0,0 W/qm 0,0 nein 9,00 µg/m³ 5,50 µg/m³ 4,00 µg/m³ 30 AQI 01:10
01:1521,4 °C 81 % 1011,1 hPa 0,0 mm 0,0 mm nein 6,4 km/h 14,5 km/h 0,0 mm/h NW 0,000 klux 0,0 W/qm 0,0 nein 10,50 µg/m³ 6,00 µg/m³ 4,50 µg/m³ 33 AQI 01:15
01:2021,4 °C 81 % 1011,1 hPa 0,0 mm 0,0 mm nein 6,4 km/h 12,9 km/h 0,0 mm/h NW 0,000 klux 0,0 W/qm 0,0 nein 10,00 µg/m³ 5,50 µg/m³ 4,50 µg/m³ 30 AQI 01:20
01:2521,3 °C 81 % 1011,0 hPa 0,0 mm 0,0 mm nein 8,0 km/h 16,1 km/h 0,0 mm/h NW 0,000 klux 0,0 W/qm 0,0 nein 11,00 µg/m³ 6,50 µg/m³ 4,50 µg/m³ 36 AQI 01:25
01:3021,3 °C 81 % 1011,1 hPa 0,0 mm 0,0 mm nein 8,0 km/h 16,1 km/h 0,0 mm/h NW 0,000 klux 0,0 W/qm 0,0 nein 9,00 µg/m³ 5,00 µg/m³ 4,00 µg/m³ 27 AQI 01:30
01:3521,3 °C 81 % 1011,1 hPa 0,0 mm 0,0 mm nein 8,0 km/h 16,1 km/h 0,0 mm/h NW 0,000 klux 0,0 W/qm 0,0 nein 9,50 µg/m³ 6,00 µg/m³ 4,50 µg/m³ 33 AQI 01:35
01:4021,3 °C 81 % 1011,1 hPa 0,0 mm 0,0 mm nein 6,4 km/h 11,3 km/h 0,0 mm/h NW 0,000 klux 0,0 W/qm 0,0 nein 11,00 µg/m³ 6,50 µg/m³ 4,00 µg/m³ 36 AQI 01:40
01:4521,3 °C 81 % 1011,1 hPa 0,0 mm 0,0 mm nein 4,8 km/h 11,3 km/h 0,0 mm/h NW 0,000 klux 0,0 W/qm 0,0 nein 9,50 µg/m³ 5,50 µg/m³ 4,50 µg/m³ 30 AQI 01:45
01:5021,3 °C 82 % 1011,0 hPa 0,0 mm 0,0 mm nein 8,0 km/h 12,9 km/h 0,0 mm/h NW 0,000 klux 0,0 W/qm 0,0 nein 10,50 µg/m³ 6,00 µg/m³ 5,00 µg/m³ 33 AQI 01:50
01:5521,3 °C 82 % 1011,1 hPa 0,0 mm 0,0 mm nein 8,0 km/h 14,5 km/h 0,0 mm/h WNW 0,000 klux 0,0 W/qm 0,0 nein 10,50 µg/m³ 5,50 µg/m³ 4,00 µg/m³ 30 AQI 01:55
UhrzeitTemperaturLuftfeuchteLuftdruckNiederschlagEvapotranspirationNiederschlag?WindWindböenRegenrateWindrichtungHelligkeitSolarstrahlungUV-IndexSonne?Feinstaub 10µmFeinstaub 2,5µmFeinstaub 1µmLuftqualitätsindexUhrzeit
02:0021,3 °C 82 % 1011,1 hPa 0,0 mm 0,0 mm nein 6,4 km/h 14,5 km/h 0,0 mm/h NW 0,000 klux 0,0 W/qm 0,0 nein 12,00 µg/m³ 7,00 µg/m³ 4,50 µg/m³ 38 AQI 02:00
02:0521,3 °C 82 % 1011,1 hPa 0,0 mm 0,0 mm nein 9,7 km/h 16,1 km/h 0,0 mm/h NW 0,000 klux 0,0 W/qm 0,0 nein 12,50 µg/m³ 7,00 µg/m³ 4,50 µg/m³ 38 AQI 02:05
02:1021,3 °C 82 % 1011,1 hPa 0,0 mm 0,0 mm nein 8,0 km/h 14,5 km/h 0,0 mm/h NNW 0,000 klux 0,0 W/qm 0,0 nein 11,50 µg/m³ 6,00 µg/m³ 4,00 µg/m³ 33 AQI 02:10
02:1521,3 °C 83 % 1011,1 hPa 0,0 mm 0,0 mm nein 11,3 km/h 17,7 km/h 0,0 mm/h NW 0,000 klux 0,0 W/qm 0,0 nein 9,00 µg/m³ 6,00 µg/m³ 5,00 µg/m³ 33 AQI 02:15
02:2021,3 °C 83 % 1011,1 hPa 0,0 mm 0,0 mm nein 11,3 km/h 16,1 km/h 0,0 mm/h NNW 0,000 klux 0,0 W/qm 0,0 nein 9,50 µg/m³ 5,50 µg/m³ 4,50 µg/m³ 30 AQI 02:20
02:2521,3 °C 83 % 1011,1 hPa 0,0 mm 0,0 mm nein 9,7 km/h 19,3 km/h 0,0 mm/h NNW 0,000 klux 0,0 W/qm 0,0 nein 9,00 µg/m³ 5,50 µg/m³ 4,50 µg/m³ 30 AQI 02:25
02:3021,3 °C 83 % 1011,2 hPa 0,0 mm 0,0 mm nein 9,7 km/h 19,3 km/h 0,0 mm/h NW 0,000 klux 0,0 W/qm 0,0 nein 9,00 µg/m³ 5,50 µg/m³ 4,50 µg/m³ 30 AQI 02:30
02:3521,3 °C 83 % 1011,3 hPa 0,0 mm 0,0 mm nein 12,9 km/h 24,1 km/h 0,0 mm/h NW 0,000 klux 0,0 W/qm 0,0 nein 9,00 µg/m³ 5,50 µg/m³ 4,50 µg/m³ 30 AQI 02:35
02:4021,3 °C 84 % 1011,3 hPa 0,2 mm 0,0 mm ja 14,5 km/h 24,1 km/h 0,0 mm/h NW 0,000 klux 0,0 W/qm 0,0 nein 12,00 µg/m³ 7,00 µg/m³ 5,00 µg/m³ 38 AQI 02:40
02:4521,1 °C 85 % 1011,4 hPa 0,2 mm 0,0 mm ja 11,3 km/h 19,3 km/h 2,8 mm/h NW 0,000 klux 0,0 W/qm 0,0 nein 11,50 µg/m³ 6,00 µg/m³ 5,00 µg/m³ 33 AQI 02:45
02:5020,9 °C 86 % 1011,4 hPa 0,4 mm 0,0 mm ja 11,3 km/h 16,1 km/h 5,7 mm/h NW 0,000 klux 0,0 W/qm 0,0 nein 16,00 µg/m³ 8,50 µg/m³ 5,00 µg/m³ 47 AQI 02:50
02:5520,8 °C 86 % 1011,4 hPa 0,6 mm 0,0 mm ja 8,0 km/h 14,5 km/h 5,7 mm/h NW 0,000 klux 0,0 W/qm 0,0 nein 11,00 µg/m³ 6,50 µg/m³ 5,00 µg/m³ 36 AQI 02:55
03:0020,7 °C 87 % 1011,5 hPa 0,0 mm 0,0 mm nein 8,0 km/h 14,5 km/h 2,0 mm/h NW 0,000 klux 0,0 W/qm 0,0 nein 18,00 µg/m³ 8,50 µg/m³ 5,00 µg/m³ 47 AQI 03:00
03:0520,6 °C 87 % 1011,5 hPa 0,6 mm 0,0 mm ja 8,0 km/h 12,9 km/h 13,6 mm/h NW 0,000 klux 0,0 W/qm 0,0 nein 11,00 µg/m³ 6,50 µg/m³ 5,00 µg/m³ 36 AQI 03:05
03:1020,5 °C 88 % 1011,4 hPa 0,2 mm 0,0 mm ja 4,8 km/h 14,5 km/h 8,1 mm/h NNW 0,000 klux 0,0 W/qm 0,0 nein 12,00 µg/m³ 7,50 µg/m³ 5,00 µg/m³ 41 AQI 03:10
03:1520,4 °C 88 % 1011,5 hPa 0,2 mm 0,0 mm ja 3,2 km/h 6,4 km/h 2,4 mm/h NNW 0,000 klux 0,0 W/qm 0,0 nein 12,50 µg/m³ 7,50 µg/m³ 5,00 µg/m³ 41 AQI 03:15
03:2020,4 °C 88 % 1011,4 hPa 0,0 mm 0,0 mm nein 1,6 km/h 6,4 km/h 1,2 mm/h NNW 0,000 klux 0,0 W/qm 0,0 nein 13,00 µg/m³ 7,50 µg/m³ 5,00 µg/m³ 41 AQI 03:20
03:2520,3 °C 88 % 1011,3 hPa 0,0 mm 0,0 mm nein 4,8 km/h 12,9 km/h 0,8 mm/h NNW 0,000 klux 0,0 W/qm 0,0 nein 14,00 µg/m³ 7,50 µg/m³ 5,00 µg/m³ 41 AQI 03:25
03:3020,3 °C 88 % 1011,3 hPa 0,0 mm 0,0 mm nein 6,4 km/h 11,3 km/h 0,0 mm/h NW 0,000 klux 0,0 W/qm 0,0 nein 13,00 µg/m³ 7,00 µg/m³ 5,00 µg/m³ 38 AQI 03:30
03:3520,2 °C 89 % 1011,3 hPa 0,0 mm 0,0 mm nein 4,8 km/h 9,7 km/h 0,0 mm/h NNW 0,000 klux 0,0 W/qm 0,0 nein 11,00 µg/m³ 6,50 µg/m³ 5,00 µg/m³ 36 AQI 03:35
03:4020,2 °C 89 % 1011,3 hPa 0,0 mm 0,0 mm nein 4,8 km/h 9,7 km/h 0,0 mm/h NNW 0,000 klux 0,0 W/qm 0,0 nein 14,00 µg/m³ 8,00 µg/m³ 5,00 µg/m³ 44 AQI 03:40
03:4520,1 °C 89 % 1011,4 hPa 0,0 mm 0,0 mm nein 4,8 km/h 11,3 km/h 0,0 mm/h NW 0,000 klux 0,0 W/qm 0,0 nein 13,00 µg/m³ 8,00 µg/m³ 5,50 µg/m³ 44 AQI 03:45
03:5020,1 °C 89 % 1011,4 hPa 0,0 mm 0,0 mm nein 4,8 km/h 6,4 km/h 0,0 mm/h NW 0,000 klux 0,0 W/qm 0,0 nein 11,00 µg/m³ 7,00 µg/m³ 5,00 µg/m³ 38 AQI 03:50
03:5520,1 °C 89 % 1011,5 hPa 0,0 mm 0,0 mm nein 4,8 km/h 9,7 km/h 0,0 mm/h NW 0,000 klux 0,0 W/qm 0,0 nein 12,50 µg/m³ 7,00 µg/m³ 5,00 µg/m³ 38 AQI 03:55
UhrzeitTemperaturLuftfeuchteLuftdruckNiederschlagEvapotranspirationNiederschlag?WindWindböenRegenrateWindrichtungHelligkeitSolarstrahlungUV-IndexSonne?Feinstaub 10µmFeinstaub 2,5µmFeinstaub 1µmLuftqualitätsindexUhrzeit
04:0020,0 °C 89 % 1011,5 hPa 0,0 mm 0,0 mm nein 4,8 km/h 8,0 km/h 0,0 mm/h NW 0,000 klux 0,0 W/qm 0,0 nein 18,00 µg/m³ 9,50 µg/m³ 5,50 µg/m³ 52 AQI 04:00
04:0519,9 °C 89 % 1011,4 hPa 0,0 mm 0,0 mm nein 4,8 km/h 8,0 km/h 0,0 mm/h NW 0,000 klux 0,0 W/qm 0,0 nein 10,00 µg/m³ 6,50 µg/m³ 5,50 µg/m³ 36 AQI 04:05
04:1019,9 °C 90 % 1011,4 hPa 0,0 mm 0,0 mm nein 6,4 km/h 11,3 km/h 0,0 mm/h WNW 0,000 klux 0,0 W/qm 0,0 nein 16,50 µg/m³ 9,50 µg/m³ 5,50 µg/m³ 52 AQI 04:10
04:1519,9 °C 90 % 1011,5 hPa 0,0 mm 0,0 mm nein 6,4 km/h 11,3 km/h 0,0 mm/h NW 0,000 klux 0,0 W/qm 0,0 nein 17,00 µg/m³ 9,00 µg/m³ 5,00 µg/m³ 49 AQI 04:15
04:2019,8 °C 90 % 1011,6 hPa 0,0 mm 0,0 mm nein 6,4 km/h 11,3 km/h 0,0 mm/h NW 0,000 klux 0,0 W/qm 0,0 nein 12,50 µg/m³ 7,50 µg/m³ 5,50 µg/m³ 41 AQI 04:20
04:2519,8 °C 90 % 1011,6 hPa 0,0 mm 0,0 mm nein 6,4 km/h 14,5 km/h 0,0 mm/h NW 0,000 klux 0,0 W/qm 0,0 nein 13,50 µg/m³ 8,50 µg/m³ 5,50 µg/m³ 47 AQI 04:25
04:3019,8 °C 90 % 1011,6 hPa 0,0 mm 0,0 mm nein 4,8 km/h 11,3 km/h 0,0 mm/h NW 0,000 klux 0,0 W/qm 0,0 nein 15,00 µg/m³ 7,50 µg/m³ 5,50 µg/m³ 41 AQI 04:30
04:3519,7 °C 90 % 1011,7 hPa 0,0 mm 0,0 mm nein 4,8 km/h 11,3 km/h 0,0 mm/h WNW 0,000 klux 0,0 W/qm 0,0 nein 10,50 µg/m³ 7,00 µg/m³ 5,00 µg/m³ 38 AQI 04:35
04:4019,7 °C 90 % 1011,6 hPa 0,0 mm 0,0 mm nein 4,8 km/h 8,0 km/h 0,0 mm/h WNW 0,000 klux 0,0 W/qm 0,0 nein 14,00 µg/m³ 7,50 µg/m³ 5,00 µg/m³ 41 AQI 04:40
04:4519,7 °C 90 % 1011,7 hPa 0,0 mm 0,0 mm nein 4,8 km/h 8,0 km/h 0,0 mm/h NW 0,000 klux 0,0 W/qm 0,0 nein 11,00 µg/m³ 7,00 µg/m³ 5,00 µg/m³ 38 AQI 04:45
04:5019,7 °C 91 % 1011,7 hPa 0,0 mm 0,0 mm nein 4,8 km/h 8,0 km/h 0,0 mm/h NW 0,000 klux 0,0 W/qm 0,0 nein 10,00 µg/m³ 6,50 µg/m³ 5,00 µg/m³ 36 AQI 04:50
04:5519,6 °C 91 % 1011,8 hPa 0,0 mm 0,0 mm nein 6,4 km/h 11,3 km/h 0,0 mm/h NW 0,000 klux 0,0 W/qm 0,0 nein 15,50 µg/m³ 8,00 µg/m³ 5,50 µg/m³ 44 AQI 04:55
05:0019,6 °C 91 % 1011,9 hPa 0,0 mm 0,0 mm nein 4,8 km/h 11,3 km/h 0,0 mm/h NW 0,000 klux 0,0 W/qm 0,0 nein 13,00 µg/m³ 7,50 µg/m³ 5,00 µg/m³ 41 AQI 05:00
05:0519,6 °C 91 % 1012,0 hPa 0,0 mm 0,0 mm nein 4,8 km/h 11,3 km/h 0,0 mm/h NW 0,000 klux 0,0 W/qm 0,0 nein 13,00 µg/m³ 7,50 µg/m³ 5,00 µg/m³ 41 AQI 05:05
05:1019,6 °C 91 % 1012,0 hPa 0,0 mm 0,0 mm nein 6,4 km/h 11,3 km/h 0,0 mm/h NW 0,000 klux 0,0 W/qm 0,0 nein 13,00 µg/m³ 7,00 µg/m³ 5,00 µg/m³ 38 AQI 05:10
05:1519,6 °C 91 % 1012,0 hPa 0,0 mm 0,0 mm nein 4,8 km/h 8,0 km/h 0,0 mm/h NW 0,000 klux 0,0 W/qm 0,0 nein 11,00 µg/m³ 6,00 µg/m³ 5,00 µg/m³ 33 AQI 05:15
05:2019,5 °C 91 % 1012,0 hPa 0,0 mm 0,0 mm nein 4,8 km/h 8,0 km/h 0,0 mm/h NW 0,000 klux 0,0 W/qm 0,0 nein 13,00 µg/m³ 7,50 µg/m³ 5,00 µg/m³ 41 AQI 05:20
05:2519,5 °C 91 % 1012,0 hPa 0,0 mm 0,0 mm nein 4,8 km/h 11,3 km/h 0,0 mm/h WNW 0,000 klux 0,0 W/qm 0,0 nein 10,50 µg/m³ 6,00 µg/m³ 5,00 µg/m³ 33 AQI 05:25
05:3019,4 °C 91 % 1011,9 hPa 0,0 mm 0,0 mm nein 1,6 km/h 4,8 km/h 0,0 mm/h WNW 0,000 klux 0,0 W/qm 0,0 nein 10,50 µg/m³ 6,00 µg/m³ 5,00 µg/m³ 33 AQI 05:30
05:3519,4 °C 91 % 1012,0 hPa 0,0 mm 0,0 mm nein 3,2 km/h 6,4 km/h 0,0 mm/h WNW 0,000 klux 0,0 W/qm 0,0 nein 12,00 µg/m³ 7,00 µg/m³ 5,00 µg/m³ 38 AQI 05:35
05:4019,4 °C 91 % 1012,1 hPa 0,0 mm 0,0 mm nein 3,2 km/h 8,0 km/h 0,0 mm/h WNW 0,000 klux 0,0 W/qm 0,0 nein 10,00 µg/m³ 6,00 µg/m³ 5,00 µg/m³ 33 AQI 05:40
05:4519,4 °C 91 % 1012,1 hPa 0,0 mm 0,0 mm nein 3,2 km/h 6,4 km/h 0,0 mm/h WNW 0,000 klux 5,0 W/qm 0,0 nein 11,50 µg/m³ 6,00 µg/m³ 5,00 µg/m³ 33 AQI 05:45
05:5019,3 °C 91 % 1012,2 hPa 0,0 mm 0,0 mm nein 3,2 km/h 6,4 km/h 0,0 mm/h WNW 0,000 klux 5,0 W/qm 0,0 nein 14,00 µg/m³ 7,50 µg/m³ 4,50 µg/m³ 41 AQI 05:50
05:5519,3 °C 91 % 1012,2 hPa 0,0 mm 0,0 mm nein 3,2 km/h 8,0 km/h 0,0 mm/h WNW 0,000 klux 6,0 W/qm 0,0 nein 11,00 µg/m³ 6,00 µg/m³ 5,00 µg/m³ 33 AQI 05:55
UhrzeitTemperaturLuftfeuchteLuftdruckNiederschlagEvapotranspirationNiederschlag?WindWindböenRegenrateWindrichtungHelligkeitSolarstrahlungUV-IndexSonne?Feinstaub 10µmFeinstaub 2,5µmFeinstaub 1µmLuftqualitätsindexUhrzeit
06:0019,3 °C 91 % 1012,2 hPa 0,0 mm 0,0 mm nein 3,2 km/h 6,4 km/h 0,0 mm/h NW 0,000 klux 8,0 W/qm 0,0 nein 11,00 µg/m³ 6,50 µg/m³ 5,00 µg/m³ 36 AQI 06:00
06:0519,3 °C 91 % 1012,2 hPa 0,0 mm 0,0 mm nein 4,8 km/h 11,3 km/h 0,0 mm/h NW 0,000 klux 11,0 W/qm 0,0 nein 13,00 µg/m³ 7,50 µg/m³ 5,00 µg/m³ 41 AQI 06:05
06:1019,3 °C 92 % 1012,2 hPa 0,0 mm 0,0 mm nein 4,8 km/h 8,0 km/h 0,0 mm/h NW 0,000 klux 11,0 W/qm 0,0 nein 12,00 µg/m³ 6,50 µg/m³ 5,00 µg/m³ 36 AQI 06:10
06:1519,3 °C 92 % 1012,2 hPa 0,0 mm 0,0 mm nein 4,8 km/h 11,3 km/h 0,0 mm/h NW 0,000 klux 15,0 W/qm 0,0 nein 14,00 µg/m³ 7,50 µg/m³ 5,00 µg/m³ 41 AQI 06:15
06:2019,3 °C 92 % 1012,2 hPa 0,0 mm 0,0 mm nein 4,8 km/h 12,9 km/h 0,0 mm/h NW 0,000 klux 26,0 W/qm 0,0 nein 10,50 µg/m³ 6,50 µg/m³ 5,00 µg/m³ 36 AQI 06:20
06:2519,3 °C 92 % 1012,2 hPa 0,0 mm 0,0 mm nein 6,4 km/h 12,9 km/h 0,0 mm/h NW 0,000 klux 37,0 W/qm 0,0 nein 12,00 µg/m³ 6,50 µg/m³ 5,00 µg/m³ 36 AQI 06:25
06:3019,3 °C 92 % 1012,3 hPa 0,0 mm 0,0 mm nein 6,4 km/h 11,3 km/h 0,0 mm/h NW 0,000 klux 47,0 W/qm 0,0 nein 9,50 µg/m³ 6,00 µg/m³ 5,00 µg/m³ 33 AQI 06:30
06:3519,3 °C 92 % 1012,2 hPa 0,0 mm 0,0 mm nein 4,8 km/h 9,7 km/h 0,0 mm/h NNW 0,000 klux 56,0 W/qm 0,0 nein 10,50 µg/m³ 6,00 µg/m³ 5,00 µg/m³ 33 AQI 06:35
06:4019,3 °C 92 % 1012,2 hPa 0,0 mm 0,0 mm nein 6,4 km/h 12,9 km/h 0,0 mm/h NNW 0,000 klux 69,0 W/qm 0,0 nein 12,00 µg/m³ 7,00 µg/m³ 5,00 µg/m³ 38 AQI 06:40
06:4519,4 °C 92 % 1012,2 hPa 0,0 mm 0,0 mm nein 8,0 km/h 14,5 km/h 0,0 mm/h NNW 0,000 klux 89,0 W/qm 0,0 nein 12,00 µg/m³ 7,00 µg/m³ 5,50 µg/m³ 38 AQI 06:45
06:5019,4 °C 92 % 1012,3 hPa 0,0 mm 0,0 mm nein 9,7 km/h 14,5 km/h 0,0 mm/h NNW 0,000 klux 98,0 W/qm 0,0 nein 14,50 µg/m³ 8,50 µg/m³ 5,50 µg/m³ 47 AQI 06:50
06:5519,4 °C 92 % 1012,4 hPa 0,0 mm 0,0 mm nein 9,7 km/h 16,1 km/h 0,0 mm/h NNW 0,000 klux 91,0 W/qm 0,0 nein 11,50 µg/m³ 7,00 µg/m³ 5,50 µg/m³ 38 AQI 06:55
07:0019,4 °C 92 % 1012,4 hPa 0,0 mm 0,1 mm nein 9,7 km/h 16,1 km/h 0,0 mm/h N 0,000 klux 105,0 W/qm 0,0 nein 13,50 µg/m³ 8,00 µg/m³ 6,00 µg/m³ 44 AQI 07:00
07:0519,4 °C 92 % 1012,4 hPa 0,0 mm 0,0 mm nein 9,7 km/h 16,1 km/h 0,0 mm/h N 0,000 klux 75,0 W/qm 0,0 nein 17,00 µg/m³ 9,00 µg/m³ 6,00 µg/m³ 49 AQI 07:05
07:1019,4 °C 92 % 1012,5 hPa 0,0 mm 0,0 mm nein 8,0 km/h 14,5 km/h 0,0 mm/h N 0,000 klux 61,0 W/qm 0,0 nein 17,00 µg/m³ 8,50 µg/m³ 6,00 µg/m³ 47 AQI 07:10
07:1519,4 °C 92 % 1012,5 hPa 0,0 mm 0,0 mm nein 8,0 km/h 14,5 km/h 0,0 mm/h N 0,000 klux 53,0 W/qm 0,0 nein 15,50 µg/m³ 9,00 µg/m³ 6,00 µg/m³ 49 AQI 07:15
07:2019,5 °C 92 % 1012,6 hPa 0,0 mm 0,0 mm nein 6,4 km/h 12,9 km/h 0,0 mm/h N 0,000 klux 54,0 W/qm 0,0 nein 17,50 µg/m³ 10,00 µg/m³ 7,00 µg/m³ 53 AQI 07:20
07:2519,5 °C 92 % 1012,6 hPa 0,0 mm 0,0 mm nein 9,7 km/h 14,5 km/h 0,0 mm/h N 0,000 klux 55,0 W/qm 0,0 nein 14,50 µg/m³ 9,00 µg/m³ 6,50 µg/m³ 49 AQI 07:25
07:3019,5 °C 92 % 1012,5 hPa 0,0 mm 0,0 mm nein 6,4 km/h 12,9 km/h 0,0 mm/h N 0,000 klux 57,0 W/qm 0,0 nein 14,50 µg/m³ 8,50 µg/m³ 7,00 µg/m³ 47 AQI 07:30
07:3519,5 °C 92 % 1012,6 hPa 0,0 mm 0,0 mm nein 6,4 km/h 14,5 km/h 0,0 mm/h N 0,000 klux 73,0 W/qm 0,0 nein 15,00 µg/m³ 9,00 µg/m³ 7,00 µg/m³ 49 AQI 07:35
07:4019,6 °C 92 % 1012,7 hPa 0,0 mm 0,0 mm nein 6,4 km/h 11,3 km/h 0,0 mm/h N 0,000 klux 105,0 W/qm 0,0 nein 17,50 µg/m³ 10,50 µg/m³ 7,00 µg/m³ 54 AQI 07:40
07:4519,6 °C 92 % 1012,8 hPa 0,0 mm 0,0 mm nein 4,8 km/h 11,3 km/h 0,0 mm/h N 0,000 klux 135,0 W/qm 0,0 nein 18,50 µg/m³ 10,00 µg/m³ 7,00 µg/m³ 53 AQI 07:45
07:5019,7 °C 92 % 1012,9 hPa 0,0 mm 0,0 mm nein 8,0 km/h 14,5 km/h 0,0 mm/h N 0,000 klux 175,0 W/qm 0,0 nein 19,50 µg/m³ 11,00 µg/m³ 7,50 µg/m³ 55 AQI 07:50
07:5519,8 °C 92 % 1012,9 hPa 0,0 mm 0,0 mm nein 8,0 km/h 16,1 km/h 0,0 mm/h N 0,000 klux 198,0 W/qm 0,0 nein 17,00 µg/m³ 11,00 µg/m³ 7,50 µg/m³ 55 AQI 07:55
UhrzeitTemperaturLuftfeuchteLuftdruckNiederschlagEvapotranspirationNiederschlag?WindWindböenRegenrateWindrichtungHelligkeitSolarstrahlungUV-IndexSonne?Feinstaub 10µmFeinstaub 2,5µmFeinstaub 1µmLuftqualitätsindexUhrzeit
08:0019,8 °C 92 % 1013,0 hPa 0,0 mm 0,1 mm nein 9,7 km/h 16,1 km/h 0,0 mm/h NNW 0,000 klux 214,0 W/qm 0,0 nein 19,50 µg/m³ 11,50 µg/m³ 8,00 µg/m³ 55 AQI 08:00
08:0519,9 °C 92 % 1013,0 hPa 0,0 mm 0,0 mm nein 8,0 km/h 14,5 km/h 0,0 mm/h N 0,000 klux 189,0 W/qm 0,0 nein 22,50 µg/m³ 12,50 µg/m³ 8,00 µg/m³ 57 AQI 08:05
08:1019,9 °C 92 % 1013,0 hPa 0,0 mm 0,0 mm nein 6,4 km/h 12,9 km/h 0,0 mm/h N 0,000 klux 194,0 W/qm 0,5 nein 20,50 µg/m³ 12,00 µg/m³ 8,50 µg/m³ 56 AQI 08:10
08:1520,1 °C 92 % 1012,9 hPa 0,0 mm 0,0 mm nein 6,4 km/h 12,9 km/h 0,0 mm/h N 0,000 klux 219,0 W/qm 0,7 nein 21,50 µg/m³ 13,00 µg/m³ 8,50 µg/m³ 58 AQI 08:15
08:2020,1 °C 91 % 1013,0 hPa 0,0 mm 0,0 mm nein 8,0 km/h 14,5 km/h 0,0 mm/h N 0,000 klux 192,0 W/qm 0,7 nein 17,00 µg/m³ 10,50 µg/m³ 8,50 µg/m³ 54 AQI 08:20
08:2520,2 °C 91 % 1013,0 hPa 0,0 mm 0,0 mm nein 8,0 km/h 14,5 km/h 0,0 mm/h N 0,000 klux 367,0 W/qm 0,9 nein 20,00 µg/m³ 12,00 µg/m³ 8,50 µg/m³ 56 AQI 08:25
08:3020,3 °C 91 % 1013,1 hPa 0,0 mm 0,0 mm nein 11,3 km/h 17,7 km/h 0,0 mm/h N 0,000 klux 437,0 W/qm 1,0 nein 21,00 µg/m³ 13,00 µg/m³ 9,00 µg/m³ 58 AQI 08:30
08:3520,4 °C 90 % 1013,2 hPa 0,0 mm 0,0 mm nein 9,7 km/h 19,3 km/h 0,0 mm/h N 0,000 klux 437,0 W/qm 1,0 nein 20,50 µg/m³ 12,00 µg/m³ 8,50 µg/m³ 56 AQI 08:35
08:4020,4 °C 90 % 1013,2 hPa 0,0 mm 0,0 mm nein 11,3 km/h 17,7 km/h 0,0 mm/h N 0,000 klux 342,0 W/qm 1,0 nein 22,00 µg/m³ 13,50 µg/m³ 9,00 µg/m³ 59 AQI 08:40
08:4520,6 °C 90 % 1013,3 hPa 0,0 mm 0,0 mm nein 9,7 km/h 16,1 km/h 0,0 mm/h N 0,000 klux 400,0 W/qm 1,1 nein 26,00 µg/m³ 15,00 µg/m³ 9,50 µg/m³ 62 AQI 08:45
08:5020,7 °C 89 % 1013,3 hPa 0,0 mm 0,0 mm nein 11,3 km/h 19,3 km/h 0,0 mm/h N 0,000 klux 351,0 W/qm 0,9 nein 21,00 µg/m³ 12,50 µg/m³ 9,50 µg/m³ 57 AQI 08:50
08:5520,8 °C 88 % 1013,3 hPa 0,0 mm 0,0 mm nein 9,7 km/h 19,3 km/h 0,0 mm/h N 0,000 klux 238,0 W/qm 0,7 nein 95,50 µg/m³ 37,50 µg/m³ 13,00 µg/m³ 106 AQI 08:55
09:0020,8 °C 88 % 1013,3 hPa 0,0 mm 0,2 mm nein 8,0 km/h 16,1 km/h 0,0 mm/h N 0,000 klux 143,0 W/qm 0,2 nein 26,00 µg/m³ 14,50 µg/m³ 10,00 µg/m³ 61 AQI 09:00
09:0520,7 °C 87 % 1013,4 hPa 0,0 mm 0,0 mm nein 8,0 km/h 16,1 km/h 0,0 mm/h NNO 0,000 klux 99,0 W/qm 0,1 nein 38,50 µg/m³ 20,50 µg/m³ 12,50 µg/m³ 72 AQI 09:05
09:1020,6 °C 87 % 1013,5 hPa 0,0 mm 0,0 mm nein 8,0 km/h 17,7 km/h 0,0 mm/h NO 0,000 klux 150,0 W/qm 0,6 nein 22,00 µg/m³ 13,00 µg/m³ 10,00 µg/m³ 58 AQI 09:10
09:1520,6 °C 87 % 1013,6 hPa 0,0 mm 0,0 mm nein 8,0 km/h 17,7 km/h 0,0 mm/h N 0,000 klux 193,0 W/qm 0,8 nein 40,00 µg/m³ 19,50 µg/m³ 10,50 µg/m³ 70 AQI 09:15
09:2020,6 °C 87 % 1013,7 hPa 0,0 mm 0,0 mm nein 11,3 km/h 20,9 km/h 0,0 mm/h N 0,000 klux 171,0 W/qm 0,8 nein 26,50 µg/m³ 15,50 µg/m³ 11,00 µg/m³ 63 AQI 09:20
09:2520,4 °C 86 % 1013,7 hPa 0,0 mm 0,0 mm nein 12,9 km/h 22,5 km/h 0,0 mm/h N 0,000 klux 191,0 W/qm 0,9 nein 43,00 µg/m³ 20,50 µg/m³ 11,50 µg/m³ 72 AQI 09:25
09:3020,4 °C 87 % 1013,7 hPa 0,0 mm 0,0 mm nein 11,3 km/h 16,1 km/h 0,0 mm/h N 0,000 klux 264,0 W/qm 1,2 nein 24,50 µg/m³ 15,00 µg/m³ 9,50 µg/m³ 62 AQI 09:30
09:3520,5 °C 87 % 1013,7 hPa 0,0 mm 0,0 mm nein 8,0 km/h 14,5 km/h 0,0 mm/h N 0,000 klux 346,0 W/qm 1,4 nein 52,50 µg/m³ 22,50 µg/m³ 10,50 µg/m³ 76 AQI 09:35
09:4020,6 °C 86 % 1013,8 hPa 0,0 mm 0,0 mm nein 9,7 km/h 16,1 km/h 0,0 mm/h N 0,000 klux 344,0 W/qm 1,4 nein 29,50 µg/m³ 16,50 µg/m³ 11,00 µg/m³ 65 AQI 09:40
09:4520,6 °C 86 % 1013,9 hPa 0,0 mm 0,0 mm nein 11,3 km/h 19,3 km/h 0,0 mm/h N 0,000 klux 224,0 W/qm 1,0 nein 88,00 µg/m³ 37,50 µg/m³ 16,00 µg/m³ 106 AQI 09:45
09:5020,6 °C 86 % 1013,9 hPa 0,0 mm 0,0 mm nein 8,0 km/h 14,5 km/h 0,0 mm/h N 0,000 klux 160,0 W/qm 0,7 nein 23,00 µg/m³ 14,00 µg/m³ 10,00 µg/m³ 60 AQI 09:50
09:5520,5 °C 86 % 1014,0 hPa 0,0 mm 0,0 mm nein 8,0 km/h 16,1 km/h 0,0 mm/h N 0,000 klux 114,0 W/qm 0,5 nein 23,00 µg/m³ 13,50 µg/m³ 10,00 µg/m³ 59 AQI 09:55
UhrzeitTemperaturLuftfeuchteLuftdruckNiederschlagEvapotranspirationNiederschlag?WindWindböenRegenrateWindrichtungHelligkeitSolarstrahlungUV-IndexSonne?Feinstaub 10µmFeinstaub 2,5µmFeinstaub 1µmLuftqualitätsindexUhrzeit
10:0020,5 °C 86 % 1014,1 hPa 0,0 mm 0,1 mm nein 11,3 km/h 17,7 km/h 0,0 mm/h N 0,000 klux 95,0 W/qm 0,0 nein 24,00 µg/m³ 15,50 µg/m³ 12,50 µg/m³ 63 AQI 10:00
10:0520,3 °C 86 % 1014,3 hPa 0,0 mm 0,0 mm nein 11,3 km/h 17,7 km/h 0,0 mm/h N 0,000 klux 70,0 W/qm 0,0 nein 27,00 µg/m³ 16,50 µg/m³ 12,50 µg/m³ 65 AQI 10:05
10:1020,1 °C 87 % 1014,3 hPa 0,2 mm 0,0 mm ja 12,9 km/h 20,9 km/h 0,0 mm/h N 0,000 klux 84,0 W/qm 0,3 nein 72,00 µg/m³ 30,00 µg/m³ 12,00 µg/m³ 90 AQI 10:10
10:1519,8 °C 87 % 1014,4 hPa 0,2 mm 0,0 mm ja 11,3 km/h 20,9 km/h 2,6 mm/h N 0,000 klux 95,0 W/qm 0,5 nein 27,50 µg/m³ 16,00 µg/m³ 12,00 µg/m³ 64 AQI 10:15
10:2019,8 °C 88 % 1014,3 hPa 0,0 mm 0,0 mm nein 4,8 km/h 11,3 km/h 1,4 mm/h N 0,000 klux 108,0 W/qm 0,7 nein 22,00 µg/m³ 14,50 µg/m³ 12,00 µg/m³ 61 AQI 10:20
10:2519,8 °C 89 % 1014,4 hPa 0,0 mm 0,0 mm nein 8,0 km/h 14,5 km/h 1,0 mm/h N 0,000 klux 150,0 W/qm 0,9 nein 23,00 µg/m³ 15,00 µg/m³ 12,00 µg/m³ 62 AQI 10:25
10:3019,7 °C 89 % 1014,4 hPa 0,0 mm 0,0 mm nein 8,0 km/h 16,1 km/h 0,0 mm/h N 0,000 klux 238,0 W/qm 1,4 nein 25,50 µg/m³ 16,50 µg/m³ 12,00 µg/m³ 65 AQI 10:30
10:3519,9 °C 90 % 1014,4 hPa 0,0 mm 0,0 mm nein 11,3 km/h 19,3 km/h 0,0 mm/h N 0,000 klux 641,0 W/qm 2,7 nein 28,50 µg/m³ 17,50 µg/m³ 13,00 µg/m³ 67 AQI 10:35
10:4020,3 °C 91 % 1014,4 hPa 0,0 mm 0,0 mm nein 9,7 km/h 19,3 km/h 0,0 mm/h N 0,000 klux 1051,0 W/qm 3,5 nein 28,00 µg/m³ 17,00 µg/m³ 12,00 µg/m³ 66 AQI 10:40
10:4520,4 °C 90 % 1014,3 hPa 0,0 mm 0,0 mm nein 8,0 km/h 17,7 km/h 0,0 mm/h NNO 0,000 klux 604,0 W/qm 2,3 nein 26,50 µg/m³ 16,00 µg/m³ 12,00 µg/m³ 64 AQI 10:45
10:5020,3 °C 89 % 1014,5 hPa 0,0 mm 0,0 mm nein 11,3 km/h 19,3 km/h 0,0 mm/h N 0,000 klux 394,0 W/qm 1,9 nein 25,00 µg/m³ 15,00 µg/m³ 10,50 µg/m³ 62 AQI 10:50
10:5520,3 °C 89 % 1014,5 hPa 0,0 mm 0,0 mm nein 12,9 km/h 19,3 km/h 0,0 mm/h N 0,000 klux 370,0 W/qm 1,9 nein 35,50 µg/m³ 19,00 µg/m³ 10,50 µg/m³ 69 AQI 10:55
11:0020,3 °C 88 % 1014,5 hPa 0,0 mm 0,2 mm nein 11,3 km/h 22,5 km/h 0,0 mm/h N 0,000 klux 386,0 W/qm 1,9 nein 36,50 µg/m³ 20,00 µg/m³ 12,50 µg/m³ 71 AQI 11:00
11:0520,3 °C 88 % 1014,6 hPa 0,0 mm 0,0 mm nein 12,9 km/h 20,9 km/h 0,0 mm/h N 0,000 klux 438,0 W/qm 2,2 nein 18,50 µg/m³ 12,00 µg/m³ 9,50 µg/m³ 56 AQI 11:05
11:1020,5 °C 88 % 1014,5 hPa 0,0 mm 0,0 mm nein 11,3 km/h 17,7 km/h 0,0 mm/h N 0,000 klux 513,0 W/qm 2,5 nein 19,00 µg/m³ 12,50 µg/m³ 10,00 µg/m³ 57 AQI 11:10
11:1520,6 °C 87 % 1014,5 hPa 0,0 mm 0,0 mm nein 12,9 km/h 20,9 km/h 0,0 mm/h N 0,000 klux 456,0 W/qm 2,4 nein 18,50 µg/m³ 11,50 µg/m³ 9,00 µg/m³ 55 AQI 11:15
11:2020,6 °C 87 % 1014,6 hPa 0,0 mm 0,0 mm nein 16,1 km/h 20,9 km/h 0,0 mm/h N 0,000 klux 412,0 W/qm 2,1 nein 30,00 µg/m³ 15,50 µg/m³ 10,00 µg/m³ 63 AQI 11:20
11:2520,6 °C 86 % 1014,5 hPa 0,0 mm 0,0 mm nein 12,9 km/h 20,9 km/h 0,0 mm/h N 0,000 klux 388,0 W/qm 2,1 nein 26,00 µg/m³ 15,50 µg/m³ 9,50 µg/m³ 63 AQI 11:25
11:3020,6 °C 86 % 1014,6 hPa 0,0 mm 0,0 mm nein 12,9 km/h 19,3 km/h 0,0 mm/h N 0,000 klux 351,0 W/qm 2,0 nein 22,50 µg/m³ 13,50 µg/m³ 10,00 µg/m³ 59 AQI 11:30
11:3520,6 °C 86 % 1014,6 hPa 0,0 mm 0,0 mm nein 12,9 km/h 19,3 km/h 0,0 mm/h N 0,000 klux 360,0 W/qm 2,4 nein 23,00 µg/m³ 14,00 µg/m³ 9,50 µg/m³ 60 AQI 11:35
11:4020,8 °C 86 % 1014,7 hPa 0,0 mm 0,0 mm nein 12,9 km/h 19,3 km/h 0,0 mm/h N 0,000 klux 665,0 W/qm 3,5 nein 30,50 µg/m³ 16,00 µg/m³ 10,00 µg/m³ 64 AQI 11:40
11:4521,1 °C 86 % 1014,8 hPa 0,0 mm 0,0 mm nein 11,3 km/h 20,9 km/h 0,0 mm/h N 0,000 klux 508,0 W/qm 3,0 nein 23,50 µg/m³ 14,00 µg/m³ 9,50 µg/m³ 60 AQI 11:45
11:5021,2 °C 84 % 1014,7 hPa 0,0 mm 0,0 mm nein 12,9 km/h 22,5 km/h 0,0 mm/h N 0,000 klux 461,0 W/qm 2,6 nein 19,00 µg/m³ 12,00 µg/m³ 9,50 µg/m³ 56 AQI 11:50
11:5521,2 °C 83 % 1014,9 hPa 0,0 mm 0,0 mm nein 11,3 km/h 19,3 km/h 0,0 mm/h N 0,000 klux 410,0 W/qm 2,4 nein 18,00 µg/m³ 11,00 µg/m³ 8,50 µg/m³ 55 AQI 11:55
UhrzeitTemperaturLuftfeuchteLuftdruckNiederschlagEvapotranspirationNiederschlag?WindWindböenRegenrateWindrichtungHelligkeitSolarstrahlungUV-IndexSonne?Feinstaub 10µmFeinstaub 2,5µmFeinstaub 1µmLuftqualitätsindexUhrzeit
12:0021,3 °C 83 % 1014,9 hPa 0,0 mm 0,3 mm nein 11,3 km/h 25,7 km/h 0,0 mm/h N 0,000 klux 516,0 W/qm 2,9 nein 38,50 µg/m³ 18,00 µg/m³ 9,50 µg/m³ 68 AQI 12:00
12:0521,4 °C 83 % 1014,9 hPa 0,0 mm 0,0 mm nein 11,3 km/h 17,7 km/h 0,0 mm/h N 0,000 klux 425,0 W/qm 2,5 nein 19,50 µg/m³ 11,50 µg/m³ 9,00 µg/m³ 55 AQI 12:05
12:1021,6 °C 83 % 1014,9 hPa 0,0 mm 0,0 mm nein 9,7 km/h 17,7 km/h 0,0 mm/h N 0,000 klux 515,0 W/qm 3,1 nein 18,00 µg/m³ 11,50 µg/m³ 9,00 µg/m³ 55 AQI 12:10
12:1521,7 °C 83 % 1014,9 hPa 0,0 mm 0,0 mm nein 12,9 km/h 20,9 km/h 0,0 mm/h N 0,000 klux 545,0 W/qm 3,8 nein 15,50 µg/m³ 9,50 µg/m³ 8,00 µg/m³ 52 AQI 12:15
12:2021,8 °C 82 % 1014,9 hPa 0,0 mm 0,0 mm nein 9,7 km/h 17,7 km/h 0,0 mm/h N 0,000 klux 469,0 W/qm 3,1 nein 12,50 µg/m³ 8,00 µg/m³ 6,50 µg/m³ 44 AQI 12:20
12:2521,8 °C 80 % 1015,0 hPa 0,0 mm 0,0 mm nein 11,3 km/h 22,5 km/h 0,0 mm/h N 0,000 klux 525,0 W/qm 3,8 nein 15,00 µg/m³ 9,00 µg/m³ 6,00 µg/m³ 49 AQI 12:25
12:3022,1 °C 79 % 1014,9 hPa 0,0 mm 0,0 mm nein 11,3 km/h 17,7 km/h 0,0 mm/h N 0,000 klux 768,0 W/qm 4,8 nein 10,50 µg/m³ 7,00 µg/m³ 5,50 µg/m³ 38 AQI 12:30
12:3522,2 °C 77 % 1014,9 hPa 0,0 mm 0,0 mm nein 16,1 km/h 24,1 km/h 0,0 mm/h N 0,000 klux 694,0 W/qm 4,3 nein 12,50 µg/m³ 7,50 µg/m³ 5,00 µg/m³ 41 AQI 12:35
12:4022,5 °C 77 % 1015,0 hPa 0,0 mm 0,0 mm nein 11,3 km/h 20,9 km/h 0,0 mm/h N 0,000 klux 864,0 W/qm 4,8 nein 10,00 µg/m³ 6,00 µg/m³ 5,00 µg/m³ 33 AQI 12:40
12:4522,7 °C 76 % 1014,8 hPa 0,0 mm 0,0 mm nein 11,3 km/h 20,9 km/h 0,0 mm/h N 0,000 klux 585,0 W/qm 4,2 nein 8,00 µg/m³ 5,00 µg/m³ 4,00 µg/m³ 27 AQI 12:45
12:5022,8 °C 75 % 1014,8 hPa 0,0 mm 0,0 mm nein 9,7 km/h 19,3 km/h 0,0 mm/h N 0,000 klux 781,0 W/qm 4,8 nein 7,50 µg/m³ 5,00 µg/m³ 4,00 µg/m³ 27 AQI 12:50
12:5522,9 °C 75 % 1014,9 hPa 0,0 mm 0,0 mm nein 9,7 km/h 19,3 km/h 0,0 mm/h N 0,000 klux 682,0 W/qm 5,0 nein 10,50 µg/m³ 5,00 µg/m³ 3,00 µg/m³ 27 AQI 12:55
13:0023,1 °C 75 % 1014,8 hPa 0,2 mm 0,5 mm ja 11,3 km/h 19,3 km/h 0,0 mm/h N 0,000 klux 709,0 W/qm 5,3 nein 7,50 µg/m³ 4,50 µg/m³ 3,00 µg/m³ 25 AQI 13:00
13:0523,2 °C 73 % 1014,9 hPa 0,0 mm 0,0 mm nein 11,3 km/h 25,7 km/h 0,0 mm/h N 0,000 klux 464,0 W/qm 4,7 nein 20,00 µg/m³ 8,00 µg/m³ 3,00 µg/m³ 44 AQI 13:05
13:1023,3 °C 73 % 1014,9 hPa 0,0 mm 0,0 mm nein 12,9 km/h 22,5 km/h 0,0 mm/h N 0,000 klux 570,0 W/qm 4,2 nein 7,50 µg/m³ 4,50 µg/m³ 2,50 µg/m³ 25 AQI 13:10
13:1523,2 °C 72 % 1014,9 hPa 0,0 mm 0,0 mm nein 12,9 km/h 24,1 km/h 0,0 mm/h N 0,000 klux 639,0 W/qm 4,4 nein 10,00 µg/m³ 5,00 µg/m³ 2,50 µg/m³ 27 AQI 13:15
13:2023,1 °C 72 % 1015,0 hPa 0,0 mm 0,0 mm nein 14,5 km/h 24,1 km/h 0,0 mm/h NNO 0,000 klux 593,0 W/qm 3,5 nein 26,50 µg/m³ 12,00 µg/m³ 6,50 µg/m³ 56 AQI 13:20
13:2522,8 °C 72 % 1015,2 hPa 0,0 mm 0,0 mm nein 14,5 km/h 25,7 km/h 0,0 mm/h N 0,000 klux 458,0 W/qm 3,2 nein 8,00 µg/m³ 4,50 µg/m³ 3,50 µg/m³ 25 AQI 13:25
13:3022,8 °C 73 % 1015,1 hPa 0,0 mm 0,0 mm nein 12,9 km/h 20,9 km/h 0,0 mm/h N 0,000 klux 582,0 W/qm 3,9 nein 11,50 µg/m³ 6,00 µg/m³ 3,50 µg/m³ 33 AQI 13:30
13:3522,9 °C 73 % 1015,1 hPa 0,0 mm 0,0 mm nein 14,5 km/h 24,1 km/h 0,0 mm/h N 0,000 klux 640,0 W/qm 4,3 nein 6,50 µg/m³ 3,50 µg/m³ 2,50 µg/m³ 19 AQI 13:35
13:4023,3 °C 74 % 1015,0 hPa 0,0 mm 0,0 mm nein 9,7 km/h 25,7 km/h 0,0 mm/h N 0,000 klux 763,0 W/qm 4,7 nein 7,00 µg/m³ 3,50 µg/m³ 2,50 µg/m³ 19 AQI 13:40
13:4523,6 °C 73 % 1014,9 hPa 0,0 mm 0,0 mm nein 8,0 km/h 16,1 km/h 0,0 mm/h NNO 0,000 klux 1010,0 W/qm 5,4 nein 6,50 µg/m³ 3,50 µg/m³ 2,50 µg/m³ 19 AQI 13:45
13:5023,8 °C 71 % 1014,8 hPa 0,0 mm 0,0 mm nein 8,0 km/h 14,5 km/h 0,0 mm/h N 0,000 klux 1004,0 W/qm 5,4 nein 6,00 µg/m³ 3,50 µg/m³ 2,00 µg/m³ 19 AQI 13:50
13:5523,8 °C 69 % 1014,9 hPa 0,0 mm 0,0 mm nein 8,0 km/h 12,9 km/h 0,0 mm/h NNO 0,000 klux 934,0 W/qm 5,6 nein 5,00 µg/m³ 3,00 µg/m³ 2,50 µg/m³ 16 AQI 13:55
UhrzeitTemperaturLuftfeuchteLuftdruckNiederschlagEvapotranspirationNiederschlag?WindWindböenRegenrateWindrichtungHelligkeitSolarstrahlungUV-IndexSonne?Feinstaub 10µmFeinstaub 2,5µmFeinstaub 1µmLuftqualitätsindexUhrzeit
14:0024,1 °C 70 % 1014,7 hPa 0,0 mm 0,5 mm nein 8,0 km/h 17,7 km/h 0,0 mm/h N 0,000 klux 921,0 W/qm 5,5 nein 5,00 µg/m³ 3,50 µg/m³ 2,50 µg/m³ 19 AQI 14:00
14:0524,2 °C 69 % 1014,7 hPa 0,0 mm 0,0 mm nein 8,0 km/h 16,1 km/h 0,0 mm/h N 0,000 klux 532,0 W/qm 4,3 nein 6,00 µg/m³ 3,00 µg/m³ 2,00 µg/m³ 16 AQI 14:05
14:1024,2 °C 69 % 1014,7 hPa 0,0 mm 0,0 mm nein 4,8 km/h 12,9 km/h 0,0 mm/h NNO 0,000 klux 766,0 W/qm 5,0 nein 4,50 µg/m³ 2,50 µg/m³ 2,00 µg/m³ 14 AQI 14:10
14:1524,5 °C 68 % 1014,7 hPa 0,0 mm 0,0 mm nein 4,8 km/h 14,5 km/h 0,0 mm/h ONO 0,000 klux 954,0 W/qm 5,5 nein 5,00 µg/m³ 2,50 µg/m³ 2,00 µg/m³ 14 AQI 14:15
14:2024,8 °C 69 % 1014,7 hPa 0,0 mm 0,0 mm nein 6,4 km/h 16,1 km/h 0,0 mm/h NNW 0,000 klux 979,0 W/qm 5,2 nein 4,00 µg/m³ 2,50 µg/m³ 2,00 µg/m³ 14 AQI 14:20
14:2524,9 °C 65 % 1014,7 hPa 0,0 mm 0,0 mm nein 8,0 km/h 16,1 km/h 0,0 mm/h NO 0,000 klux 981,0 W/qm 4,9 nein 9,00 µg/m³ 4,00 µg/m³ 2,00 µg/m³ 22 AQI 14:25
14:3025,1 °C 66 % 1014,7 hPa 0,0 mm 0,0 mm nein 8,0 km/h 19,3 km/h 0,0 mm/h N 0,000 klux 946,0 W/qm 5,3 nein 4,50 µg/m³ 3,00 µg/m³ 2,00 µg/m³ 16 AQI 14:30
14:3525,2 °C 63 % 1014,7 hPa 0,0 mm 0,0 mm nein 11,3 km/h 24,1 km/h 0,0 mm/h N 0,000 klux 959,0 W/qm 4,8 nein 4,00 µg/m³ 2,50 µg/m³ 2,00 µg/m³ 14 AQI 14:35
14:4025,2 °C 65 % 1014,7 hPa 0,0 mm 0,0 mm nein 12,9 km/h 20,9 km/h 0,0 mm/h N 0,000 klux 944,0 W/qm 5,0 nein 4,00 µg/m³ 2,50 µg/m³ 2,00 µg/m³ 14 AQI 14:40
14:4525,2 °C 62 % 1014,7 hPa 0,0 mm 0,0 mm nein 12,9 km/h 22,5 km/h 0,0 mm/h N 0,000 klux 652,0 W/qm 4,4 nein 4,00 µg/m³ 2,50 µg/m³ 2,00 µg/m³ 14 AQI 14:45
14:5024,8 °C 63 % 1014,8 hPa 0,0 mm 0,0 mm nein 11,3 km/h 20,9 km/h 0,0 mm/h NNO 0,000 klux 523,0 W/qm 3,9 nein 4,50 µg/m³ 3,00 µg/m³ 2,50 µg/m³ 16 AQI 14:50
14:5524,6 °C 63 % 1014,8 hPa 0,0 mm 0,0 mm nein 12,9 km/h 22,5 km/h 0,0 mm/h N 0,000 klux 563,0 W/qm 4,0 nein 4,50 µg/m³ 3,00 µg/m³ 2,00 µg/m³ 16 AQI 14:55
15:0024,6 °C 64 % 1014,8 hPa 0,0 mm 0,5 mm nein 8,0 km/h 20,9 km/h 0,0 mm/h NNO 0,000 klux 234,0 W/qm 2,7 nein 6,00 µg/m³ 3,50 µg/m³ 2,50 µg/m³ 19 AQI 15:00
15:0524,4 °C 65 % 1014,8 hPa 0,0 mm 0,0 mm nein 11,3 km/h 19,3 km/h 0,0 mm/h N 0,000 klux 600,0 W/qm 3,5 nein 4,00 µg/m³ 2,50 µg/m³ 2,00 µg/m³ 14 AQI 15:05
15:1024,7 °C 65 % 1014,8 hPa 0,0 mm 0,0 mm nein 8,0 km/h 20,9 km/h 0,0 mm/h N 0,000 klux 995,0 W/qm 4,5 nein 4,00 µg/m³ 2,50 µg/m³ 2,00 µg/m³ 14 AQI 15:10
15:1525,0 °C 63 % 1014,6 hPa 0,0 mm 0,0 mm nein 12,9 km/h 22,5 km/h 0,0 mm/h N 0,000 klux 993,0 W/qm 4,1 nein 4,50 µg/m³ 2,50 µg/m³ 2,00 µg/m³ 14 AQI 15:15
15:2025,1 °C 63 % 1014,7 hPa 0,0 mm 0,0 mm nein 11,3 km/h 24,1 km/h 0,0 mm/h NNO 0,000 klux 1038,0 W/qm 4,6 nein 4,00 µg/m³ 2,50 µg/m³ 2,00 µg/m³ 14 AQI 15:20
15:2525,4 °C 64 % 1014,6 hPa 0,0 mm 0,0 mm nein 11,3 km/h 20,9 km/h 0,0 mm/h N 0,000 klux 1038,0 W/qm 4,1 nein 4,00 µg/m³ 2,50 µg/m³ 2,00 µg/m³ 14 AQI 15:25
15:3025,3 °C 62 % 1014,7 hPa 0,0 mm 0,0 mm nein 6,4 km/h 17,7 km/h 0,0 mm/h NO 0,000 klux 327,0 W/qm 2,4 nein 5,00 µg/m³ 3,00 µg/m³ 2,00 µg/m³ 16 AQI 15:30
15:3525,2 °C 62 % 1014,8 hPa 0,0 mm 0,0 mm nein 4,8 km/h 12,9 km/h 0,0 mm/h ONO 0,000 klux 237,0 W/qm 1,7 nein 4,00 µg/m³ 2,50 µg/m³ 2,00 µg/m³ 14 AQI 15:35
15:4025,0 °C 63 % 1014,8 hPa 0,0 mm 0,0 mm nein 8,0 km/h 16,1 km/h 0,0 mm/h N 0,000 klux 318,0 W/qm 1,9 nein 4,00 µg/m³ 2,50 µg/m³ 2,00 µg/m³ 14 AQI 15:40
15:4524,8 °C 63 % 1014,9 hPa 0,0 mm 0,0 mm nein 6,4 km/h 17,7 km/h 0,0 mm/h NO 0,000 klux 347,0 W/qm 2,1 nein 4,00 µg/m³ 2,50 µg/m³ 2,00 µg/m³ 14 AQI 15:45
15:5024,6 °C 63 % 1015,0 hPa 0,0 mm 0,0 mm nein 9,7 km/h 17,7 km/h 0,0 mm/h NNO 0,000 klux 341,0 W/qm 2,2 nein 4,00 µg/m³ 2,50 µg/m³ 2,00 µg/m³ 14 AQI 15:50
15:5524,5 °C 65 % 1015,0 hPa 0,0 mm 0,0 mm nein 6,4 km/h 12,9 km/h 0,0 mm/h NNO 0,000 klux 479,0 W/qm 3,1 nein 4,00 µg/m³ 2,50 µg/m³ 2,00 µg/m³ 14 AQI 15:55
UhrzeitTemperaturLuftfeuchteLuftdruckNiederschlagEvapotranspirationNiederschlag?WindWindböenRegenrateWindrichtungHelligkeitSolarstrahlungUV-IndexSonne?Feinstaub 10µmFeinstaub 2,5µmFeinstaub 1µmLuftqualitätsindexUhrzeit
16:0024,7 °C 63 % 1015,0 hPa 0,0 mm 0,4 mm nein 8,0 km/h 16,1 km/h 0,0 mm/h NNO 0,000 klux 835,0 W/qm 3,9 nein 4,50 µg/m³ 2,50 µg/m³ 2,00 µg/m³ 14 AQI 16:00
16:0525,0 °C 64 % 1014,8 hPa 0,0 mm 0,0 mm nein 6,4 km/h 12,9 km/h 0,0 mm/h NO 0,000 klux 807,0 W/qm 3,8 nein 5,00 µg/m³ 3,00 µg/m³ 2,00 µg/m³ 16 AQI 16:05
16:1025,4 °C 64 % 1014,8 hPa 0,0 mm 0,0 mm nein 6,4 km/h 11,3 km/h 0,0 mm/h N 0,000 klux 760,0 W/qm 3,5 nein 4,50 µg/m³ 2,50 µg/m³ 2,00 µg/m³ 14 AQI 16:10
16:1525,8 °C 60 % 1014,7 hPa 0,0 mm 0,0 mm nein 12,9 km/h 20,9 km/h 0,0 mm/h N 0,000 klux 741,0 W/qm 3,4 nein 8,00 µg/m³ 3,50 µg/m³ 2,00 µg/m³ 19 AQI 16:15
16:2026,0 °C 62 % 1014,7 hPa 0,0 mm 0,0 mm nein 9,7 km/h 19,3 km/h 0,0 mm/h NW 0,000 klux 738,0 W/qm 3,3 nein 4,50 µg/m³ 2,50 µg/m³ 2,00 µg/m³ 14 AQI 16:20
16:2526,3 °C 61 % 1014,5 hPa 0,0 mm 0,0 mm nein 11,3 km/h 22,5 km/h 0,0 mm/h N 0,000 klux 733,0 W/qm 3,2 nein 4,00 µg/m³ 2,50 µg/m³ 2,00 µg/m³ 14 AQI 16:25
16:3026,4 °C 59 % 1014,5 hPa 0,0 mm 0,0 mm nein 12,9 km/h 25,7 km/h 0,0 mm/h N 0,000 klux 722,0 W/qm 3,1 nein 4,00 µg/m³ 2,50 µg/m³ 2,00 µg/m³ 14 AQI 16:30
16:3526,5 °C 61 % 1014,6 hPa 0,0 mm 0,0 mm nein 9,7 km/h 16,1 km/h 0,0 mm/h N 0,000 klux 722,0 W/qm 3,0 nein 4,00 µg/m³ 2,50 µg/m³ 2,00 µg/m³ 14 AQI 16:35
16:4026,6 °C 57 % 1014,6 hPa 0,0 mm 0,0 mm nein 9,7 km/h 19,3 km/h 0,0 mm/h NNO 0,000 klux 740,0 W/qm 2,9 nein 5,50 µg/m³ 3,00 µg/m³ 2,50 µg/m³ 16 AQI 16:40
16:4526,7 °C 56 % 1014,7 hPa 0,0 mm 0,0 mm nein 17,7 km/h 32,2 km/h 0,0 mm/h N 0,000 klux 742,0 W/qm 2,8 nein 4,50 µg/m³ 2,50 µg/m³ 2,00 µg/m³ 14 AQI 16:45
16:5026,7 °C 58 % 1014,6 hPa 0,0 mm 0,0 mm nein 11,3 km/h 32,2 km/h 0,0 mm/h N 0,000 klux 708,0 W/qm 2,7 nein 3,50 µg/m³ 2,50 µg/m³ 2,00 µg/m³ 14 AQI 16:50
16:5526,8 °C 58 % 1014,4 hPa 0,0 mm 0,0 mm nein 6,4 km/h 16,1 km/h 0,0 mm/h NNO 0,000 klux 685,0 W/qm 2,5 nein 4,00 µg/m³ 2,50 µg/m³ 2,00 µg/m³ 14 AQI 16:55
17:0026,8 °C 58 % 1014,6 hPa 0,0 mm 0,5 mm nein 8,0 km/h 17,7 km/h 0,0 mm/h NO 0,000 klux 687,0 W/qm 2,3 nein 4,00 µg/m³ 2,50 µg/m³ 2,00 µg/m³ 14 AQI 17:00
17:0526,7 °C 58 % 1014,5 hPa 0,0 mm 0,0 mm nein 9,7 km/h 19,3 km/h 0,0 mm/h N 0,000 klux 659,0 W/qm 2,2 nein 4,00 µg/m³ 2,50 µg/m³ 2,00 µg/m³ 14 AQI 17:05
17:1026,3 °C 59 % 1014,6 hPa 0,0 mm 0,0 mm nein 11,3 km/h 22,5 km/h 0,0 mm/h NNO 0,000 klux 275,0 W/qm 1,8 nein 4,00 µg/m³ 2,50 µg/m³ 2,00 µg/m³ 14 AQI 17:10
17:1526,2 °C 59 % 1014,6 hPa 0,0 mm 0,0 mm nein 6,4 km/h 19,3 km/h 0,0 mm/h NO 0,000 klux 601,0 W/qm 2,1 nein 4,50 µg/m³ 3,00 µg/m³ 2,50 µg/m³ 16 AQI 17:15
17:2026,1 °C 59 % 1014,7 hPa 0,0 mm 0,0 mm nein 12,9 km/h 25,7 km/h 0,0 mm/h N 0,000 klux 570,0 W/qm 2,0 nein 4,00 µg/m³ 2,50 µg/m³ 2,00 µg/m³ 14 AQI 17:20
17:2526,1 °C 59 % 1014,7 hPa 0,0 mm 0,0 mm nein 8,0 km/h 12,9 km/h 0,0 mm/h N 0,000 klux 560,0 W/qm 1,9 nein 4,50 µg/m³ 3,00 µg/m³ 2,00 µg/m³ 16 AQI 17:25
17:3026,2 °C 58 % 1014,7 hPa 0,0 mm 0,0 mm nein 9,7 km/h 17,7 km/h 0,0 mm/h N 0,000 klux 551,0 W/qm 1,8 nein 5,50 µg/m³ 3,50 µg/m³ 2,50 µg/m³ 19 AQI 17:30
17:3526,3 °C 58 % 1014,6 hPa 0,0 mm 0,0 mm nein 9,7 km/h 22,5 km/h 0,0 mm/h NO 0,000 klux 555,0 W/qm 1,7 nein 5,00 µg/m³ 3,50 µg/m³ 2,50 µg/m³ 19 AQI 17:35
17:4026,0 °C 57 % 1014,7 hPa 0,0 mm 0,0 mm nein 9,7 km/h 16,1 km/h 0,0 mm/h N 0,000 klux 150,0 W/qm 1,1 nein 6,50 µg/m³ 3,50 µg/m³ 2,50 µg/m³ 19 AQI 17:40
17:4525,7 °C 58 % 1014,8 hPa 0,0 mm 0,0 mm nein 8,0 km/h 16,1 km/h 0,0 mm/h N 0,000 klux 151,0 W/qm 1,1 nein 4,00 µg/m³ 2,50 µg/m³ 2,00 µg/m³ 14 AQI 17:45
17:5025,6 °C 59 % 1014,7 hPa 0,0 mm 0,0 mm nein 8,0 km/h 12,9 km/h 0,0 mm/h N 0,000 klux 213,0 W/qm 1,2 nein 5,50 µg/m³ 3,00 µg/m³ 2,00 µg/m³ 16 AQI 17:50
17:5525,6 °C 61 % 1014,8 hPa 0,0 mm 0,0 mm nein 4,8 km/h 12,9 km/h 0,0 mm/h N 0,000 klux 482,0 W/qm 1,3 nein 5,50 µg/m³ 3,50 µg/m³ 2,50 µg/m³ 19 AQI 17:55
UhrzeitTemperaturLuftfeuchteLuftdruckNiederschlagEvapotranspirationNiederschlag?WindWindböenRegenrateWindrichtungHelligkeitSolarstrahlungUV-IndexSonne?Feinstaub 10µmFeinstaub 2,5µmFeinstaub 1µmLuftqualitätsindexUhrzeit
18:0025,7 °C 59 % 1014,8 hPa 0,0 mm 0,3 mm nein 8,0 km/h 19,3 km/h 0,0 mm/h NNW 0,000 klux 502,0 W/qm 1,3 nein 4,50 µg/m³ 3,00 µg/m³ 2,50 µg/m³ 16 AQI 18:00
18:0525,6 °C 57 % 1015,0 hPa 0,0 mm 0,0 mm nein 12,9 km/h 24,1 km/h 0,0 mm/h N 0,000 klux 437,0 W/qm 1,2 nein 5,00 µg/m³ 3,00 µg/m³ 2,50 µg/m³ 16 AQI 18:05
18:1025,6 °C 57 % 1015,0 hPa 0,0 mm 0,0 mm nein 14,5 km/h 25,7 km/h 0,0 mm/h N 0,000 klux 437,0 W/qm 1,2 nein 5,00 µg/m³ 3,00 µg/m³ 2,00 µg/m³ 16 AQI 18:10
18:1525,6 °C 58 % 1015,0 hPa 0,0 mm 0,0 mm nein 8,0 km/h 19,3 km/h 0,0 mm/h N 0,000 klux 423,0 W/qm 1,1 nein 5,00 µg/m³ 3,50 µg/m³ 2,50 µg/m³ 19 AQI 18:15
18:2025,6 °C 59 % 1015,1 hPa 0,0 mm 0,0 mm nein 9,7 km/h 16,1 km/h 0,0 mm/h NNO 0,000 klux 400,0 W/qm 1,0 nein - - - - 18:20
18:2525,6 °C 58 % 1015,1 hPa 0,0 mm 0,0 mm nein 11,3 km/h 17,7 km/h 0,0 mm/h N 0,000 klux 386,0 W/qm 0,9 nein 5,00 µg/m³ 3,00 µg/m³ 2,50 µg/m³ 16 AQI 18:25
18:3025,6 °C 58 % 1015,1 hPa 0,0 mm 0,0 mm nein 8,0 km/h 14,5 km/h 0,0 mm/h N 0,000 klux 365,0 W/qm 0,9 nein 5,00 µg/m³ 3,50 µg/m³ 2,50 µg/m³ 19 AQI 18:30
18:3525,6 °C 57 % 1015,1 hPa 0,0 mm 0,0 mm nein 8,0 km/h 16,1 km/h 0,0 mm/h N 0,000 klux 233,0 W/qm 0,8 nein 5,50 µg/m³ 3,50 µg/m³ 2,50 µg/m³ 19 AQI 18:35
18:4025,6 °C 58 % 1015,1 hPa 0,0 mm 0,0 mm nein 9,7 km/h 17,7 km/h 0,0 mm/h NNW 0,000 klux 249,0 W/qm 0,7 nein 5,00 µg/m³ 3,00 µg/m³ 2,50 µg/m³ 16 AQI 18:40
18:4525,4 °C 57 % 1015,0 hPa 0,0 mm 0,0 mm nein 12,9 km/h 19,3 km/h 0,0 mm/h N 0,000 klux 181,0 W/qm 0,6 nein 5,00 µg/m³ 3,00 µg/m³ 2,50 µg/m³ 16 AQI 18:45
18:5025,2 °C 58 % 1015,1 hPa 0,0 mm 0,0 mm nein 8,0 km/h 16,1 km/h 0,0 mm/h N 0,000 klux 98,0 W/qm 0,5 nein 5,00 µg/m³ 3,50 µg/m³ 2,50 µg/m³ 19 AQI 18:50
18:5525,1 °C 59 % 1015,1 hPa 0,0 mm 0,0 mm nein 6,4 km/h 14,5 km/h 0,0 mm/h NNO 0,000 klux 74,0 W/qm 0,2 nein 6,00 µg/m³ 3,50 µg/m³ 2,50 µg/m³ 19 AQI 18:55
19:0024,9 °C 60 % 1015,2 hPa 0,0 mm 0,2 mm nein 6,4 km/h 14,5 km/h 0,0 mm/h N 0,000 klux 68,0 W/qm 0,0 nein 6,50 µg/m³ 3,50 µg/m³ 2,50 µg/m³ 19 AQI 19:00
19:0524,7 °C 61 % 1015,2 hPa 0,0 mm 0,0 mm nein 6,4 km/h 12,9 km/h 0,0 mm/h NNO 0,000 klux 78,0 W/qm 0,0 nein 5,00 µg/m³ 3,50 µg/m³ 2,50 µg/m³ 19 AQI 19:05
19:1024,6 °C 61 % 1015,2 hPa 0,0 mm 0,0 mm nein 3,2 km/h 11,3 km/h 0,0 mm/h NNO 0,000 klux 84,0 W/qm 0,0 nein 6,00 µg/m³ 3,50 µg/m³ 2,50 µg/m³ 19 AQI 19:10
19:1524,6 °C 62 % 1015,4 hPa 0,0 mm 0,0 mm nein 4,8 km/h 9,7 km/h 0,0 mm/h NNO 0,000 klux 59,0 W/qm 0,0 nein 5,50 µg/m³ 3,50 µg/m³ 2,50 µg/m³ 19 AQI 19:15
19:2024,4 °C 62 % 1015,4 hPa 0,0 mm 0,0 mm nein 4,8 km/h 8,0 km/h 0,0 mm/h NNO 0,000 klux 40,0 W/qm 0,0 nein 5,50 µg/m³ 3,50 µg/m³ 2,50 µg/m³ 19 AQI 19:20
19:2524,4 °C 63 % 1015,4 hPa 0,0 mm 0,0 mm nein 4,8 km/h 8,0 km/h 0,0 mm/h NNO 0,000 klux 29,0 W/qm 0,0 nein 6,50 µg/m³ 3,50 µg/m³ 2,50 µg/m³ 19 AQI 19:25
19:3024,3 °C 64 % 1015,5 hPa 0,0 mm 0,0 mm nein 3,2 km/h 8,0 km/h 0,0 mm/h NNO 0,000 klux 28,0 W/qm 0,0 nein 7,00 µg/m³ 4,00 µg/m³ 2,50 µg/m³ 22 AQI 19:30
19:3524,3 °C 64 % 1015,5 hPa 0,0 mm 0,0 mm nein 3,2 km/h 6,4 km/h 0,0 mm/h NNO 0,000 klux 21,0 W/qm 0,0 nein 6,00 µg/m³ 4,00 µg/m³ 3,00 µg/m³ 22 AQI 19:35
19:4024,2 °C 64 % 1015,5 hPa 0,0 mm 0,0 mm nein 4,8 km/h 12,9 km/h 0,0 mm/h NNO 0,000 klux 17,0 W/qm 0,0 nein 6,50 µg/m³ 3,50 µg/m³ 2,50 µg/m³ 19 AQI 19:40
19:4524,1 °C 65 % 1015,6 hPa 0,0 mm 0,0 mm nein 4,8 km/h 9,7 km/h 0,0 mm/h NNO 0,000 klux 15,0 W/qm 0,0 nein 6,50 µg/m³ 3,50 µg/m³ 2,50 µg/m³ 19 AQI 19:45
19:5024,0 °C 65 % 1015,7 hPa 0,0 mm 0,0 mm nein 4,8 km/h 9,7 km/h 0,0 mm/h NNO 0,000 klux 12,0 W/qm 0,0 nein 9,00 µg/m³ 4,00 µg/m³ 3,00 µg/m³ 22 AQI 19:50
19:5524,0 °C 67 % 1015,8 hPa 0,0 mm 0,0 mm nein 4,8 km/h 8,0 km/h 0,0 mm/h NNO 0,000 klux 10,0 W/qm 0,0 nein 8,00 µg/m³ 4,50 µg/m³ 3,00 µg/m³ 25 AQI 19:55
UhrzeitTemperaturLuftfeuchteLuftdruckNiederschlagEvapotranspirationNiederschlag?WindWindböenRegenrateWindrichtungHelligkeitSolarstrahlungUV-IndexSonne?Feinstaub 10µmFeinstaub 2,5µmFeinstaub 1µmLuftqualitätsindexUhrzeit
20:0023,9 °C 69 % 1015,8 hPa 0,2 mm 0,1 mm ja 4,8 km/h 12,9 km/h 0,0 mm/h NW 0,000 klux 9,0 W/qm 0,0 nein 6,00 µg/m³ 3,50 µg/m³ 2,50 µg/m³ 19 AQI 20:00
20:0523,8 °C 70 % 1015,9 hPa 0,0 mm 0,0 mm nein 4,8 km/h 12,9 km/h 0,0 mm/h NNW 0,000 klux 7,0 W/qm 0,0 nein 6,50 µg/m³ 3,50 µg/m³ 2,50 µg/m³ 19 AQI 20:05
20:1023,4 °C 71 % 1016,1 hPa 0,0 mm 0,0 mm nein 6,4 km/h 11,3 km/h 0,0 mm/h N 0,000 klux 7,0 W/qm 0,0 nein 6,50 µg/m³ 3,50 µg/m³ 2,50 µg/m³ 19 AQI 20:10
20:1523,2 °C 71 % 1016,2 hPa 0,0 mm 0,0 mm nein 6,4 km/h 14,5 km/h 0,0 mm/h NNW 0,000 klux 7,0 W/qm 0,0 nein 4,00 µg/m³ 2,50 µg/m³ 2,00 µg/m³ 14 AQI 20:15
20:2022,9 °C 71 % 1016,3 hPa 0,0 mm 0,0 mm nein 6,4 km/h 12,9 km/h 0,0 mm/h NNW 0,000 klux 10,0 W/qm 0,0 nein 5,00 µg/m³ 2,50 µg/m³ 2,00 µg/m³ 14 AQI 20:20
20:2522,7 °C 71 % 1016,3 hPa 0,0 mm 0,0 mm nein 6,4 km/h 12,9 km/h 0,0 mm/h NNW 0,000 klux 12,0 W/qm 0,0 nein 3,50 µg/m³ 2,00 µg/m³ 2,00 µg/m³ 11 AQI 20:25
20:3022,4 °C 71 % 1016,5 hPa 0,0 mm 0,0 mm nein 8,0 km/h 16,1 km/h 0,0 mm/h NW 0,000 klux 14,0 W/qm 0,0 nein 3,50 µg/m³ 1,50 µg/m³ 1,50 µg/m³ 8 AQI 20:30
20:3522,3 °C 70 % 1016,6 hPa 0,0 mm 0,0 mm nein 8,0 km/h 14,5 km/h 0,0 mm/h NNW 0,000 klux 14,0 W/qm 0,0 nein 3,50 µg/m³ 1,50 µg/m³ 1,50 µg/m³ 8 AQI 20:35
20:4022,1 °C 68 % 1016,7 hPa 0,0 mm 0,0 mm nein 6,4 km/h 14,5 km/h 0,0 mm/h NNW 0,000 klux 12,0 W/qm 0,0 nein 3,50 µg/m³ 1,50 µg/m³ 1,50 µg/m³ 8 AQI 20:40
20:4522,1 °C 69 % 1016,6 hPa 0,0 mm 0,0 mm nein 4,8 km/h 9,7 km/h 0,0 mm/h NNW 0,000 klux 12,0 W/qm 0,0 nein 3,00 µg/m³ 1,50 µg/m³ 1,50 µg/m³ 8 AQI 20:45
20:5022,0 °C 69 % 1016,7 hPa 0,0 mm 0,0 mm nein 3,2 km/h 6,4 km/h 0,0 mm/h NNW 0,000 klux 10,0 W/qm 0,0 nein 4,00 µg/m³ 2,00 µg/m³ 1,50 µg/m³ 11 AQI 20:50
20:5522,0 °C 69 % 1016,7 hPa 0,0 mm 0,0 mm nein 3,2 km/h 6,4 km/h 0,0 mm/h NNW 0,000 klux 8,0 W/qm 0,0 nein 3,50 µg/m³ 2,00 µg/m³ 1,50 µg/m³ 11 AQI 20:55
21:0021,9 °C 69 % 1016,8 hPa 0,0 mm 0,0 mm nein 6,4 km/h 11,3 km/h 0,0 mm/h NNW 0,000 klux 6,0 W/qm 0,0 nein 3,00 µg/m³ 1,50 µg/m³ 1,50 µg/m³ 8 AQI 21:00
21:0521,8 °C 69 % 1016,9 hPa 0,0 mm 0,0 mm nein 6,4 km/h 11,3 km/h 0,0 mm/h NNW 0,000 klux 5,0 W/qm 0,0 nein 3,00 µg/m³ 1,50 µg/m³ 1,50 µg/m³ 8 AQI 21:05
21:1021,8 °C 69 % 1016,9 hPa 0,0 mm 0,0 mm nein 6,4 km/h 11,3 km/h 0,0 mm/h NNW 0,000 klux 2,0 W/qm 0,0 nein 5,00 µg/m³ 2,00 µg/m³ 1,50 µg/m³ 11 AQI 21:10
21:1521,7 °C 69 % 1016,9 hPa 0,0 mm 0,0 mm nein 4,8 km/h 9,7 km/h 0,0 mm/h NNW 0,000 klux 0,0 W/qm 0,0 nein 2,50 µg/m³ 1,50 µg/m³ 1,50 µg/m³ 8 AQI 21:15
21:2021,7 °C 69 % 1017,0 hPa 0,0 mm 0,0 mm nein 4,8 km/h 9,7 km/h 0,0 mm/h NNW 0,000 klux 0,0 W/qm 0,0 nein 3,50 µg/m³ 1,50 µg/m³ 1,50 µg/m³ 8 AQI 21:20
21:2521,6 °C 69 % 1017,0 hPa 0,0 mm 0,0 mm nein 4,8 km/h 9,7 km/h 0,0 mm/h NNW 0,000 klux 0,0 W/qm 0,0 nein 5,50 µg/m³ 2,00 µg/m³ 1,50 µg/m³ 11 AQI 21:25
21:3021,6 °C 68 % 1017,2 hPa 0,0 mm 0,0 mm nein 6,4 km/h 12,9 km/h 0,0 mm/h NW 0,000 klux 0,0 W/qm 0,0 nein 3,00 µg/m³ 1,50 µg/m³ 1,50 µg/m³ 8 AQI 21:30
21:3521,4 °C 68 % 1017,3 hPa 0,0 mm 0,0 mm nein 6,4 km/h 11,3 km/h 0,0 mm/h N 0,000 klux 0,0 W/qm 0,0 nein 3,00 µg/m³ 1,50 µg/m³ 1,50 µg/m³ 8 AQI 21:35
21:4021,3 °C 68 % 1017,3 hPa 0,0 mm 0,0 mm nein 4,8 km/h 9,7 km/h 0,0 mm/h NNW 0,000 klux 0,0 W/qm 0,0 nein 6,50 µg/m³ 2,50 µg/m³ 1,50 µg/m³ 14 AQI 21:40
21:4521,2 °C 67 % 1017,4 hPa 0,0 mm 0,0 mm nein 6,4 km/h 12,9 km/h 0,0 mm/h NNW 0,000 klux 0,0 W/qm 0,0 nein 3,50 µg/m³ 1,50 µg/m³ 1,50 µg/m³ 8 AQI 21:45
21:5021,1 °C 67 % 1017,6 hPa 0,0 mm 0,0 mm nein 6,4 km/h 11,3 km/h 0,0 mm/h NNW 0,000 klux 0,0 W/qm 0,0 nein 2,50 µg/m³ 1,50 µg/m³ 1,50 µg/m³ 8 AQI 21:50
21:5521,1 °C 67 % 1017,6 hPa 0,0 mm 0,0 mm nein 4,8 km/h 9,7 km/h 0,0 mm/h NNW 0,000 klux 0,0 W/qm 0,0 nein 5,50 µg/m³ 2,50 µg/m³ 1,50 µg/m³ 14 AQI 21:55
UhrzeitTemperaturLuftfeuchteLuftdruckNiederschlagEvapotranspirationNiederschlag?WindWindböenRegenrateWindrichtungHelligkeitSolarstrahlungUV-IndexSonne?Feinstaub 10µmFeinstaub 2,5µmFeinstaub 1µmLuftqualitätsindexUhrzeit
22:0021,0 °C 67 % 1017,6 hPa 0,0 mm 0,0 mm nein 6,4 km/h 9,7 km/h 0,0 mm/h NNW 0,000 klux 0,0 W/qm 0,0 nein 3,00 µg/m³ 1,50 µg/m³ 1,50 µg/m³ 8 AQI 22:00
22:0520,9 °C 67 % 1017,7 hPa 0,0 mm 0,0 mm nein 4,8 km/h 11,3 km/h 0,0 mm/h NNW 0,000 klux 0,0 W/qm 0,0 nein 3,00 µg/m³ 1,50 µg/m³ 1,50 µg/m³ 8 AQI 22:05
22:1020,8 °C 67 % 1017,6 hPa 0,0 mm 0,0 mm nein 4,8 km/h 6,4 km/h 0,0 mm/h NNW 0,000 klux 0,0 W/qm 0,0 nein 3,50 µg/m³ 1,50 µg/m³ 1,50 µg/m³ 8 AQI 22:10
22:1520,7 °C 66 % 1017,7 hPa 0,0 mm 0,0 mm nein 6,4 km/h 11,3 km/h 0,0 mm/h NNW 0,000 klux 0,0 W/qm 0,0 nein 3,00 µg/m³ 1,50 µg/m³ 1,50 µg/m³ 8 AQI 22:15
22:2020,6 °C 66 % 1017,8 hPa 0,0 mm 0,0 mm nein 4,8 km/h 9,7 km/h 0,0 mm/h NNW 0,000 klux 0,0 W/qm 0,0 nein 3,00 µg/m³ 1,50 µg/m³ 1,50 µg/m³ 8 AQI 22:20
22:2520,5 °C 65 % 1017,8 hPa 0,0 mm 0,0 mm nein 4,8 km/h 11,3 km/h 0,0 mm/h NNW 0,000 klux 0,0 W/qm 0,0 nein 2,50 µg/m³ 1,00 µg/m³ 1,00 µg/m³ 5 AQI 22:25
Gesamt: 22,0 °C 78 % 1013,8 hPa 3,2 mm 4,1 mm ja 8,0 km/h 15,1 km/h 0,2 mm/h 0 0,000 klux 252,3 W/qm 1,2 nein 12,61 µg/m³ 7,07 µg/m³ 4,92 µg/m³ 34 AQI

Insgesamt 270 Zeilen mal 18 Spalten = 4860 Werte werden angezeigt.

www.wetter-rosstal.de   •   www.wetter-franken.de   •   www.lightningmaps.org   •   Start   •   Kontakt / Datenschutz